sensor_id;sensor_type;location;lat;lon;timestamp;temperature;humidity
14471;DHT22;7321;50.802;4.336;2022-12-18T00:03:41;0.40;99.90
14471;DHT22;7321;50.802;4.336;2022-12-18T00:06:07;0.20;99.90
14471;DHT22;7321;50.802;4.336;2022-12-18T00:08:34;0.20;99.90
14471;DHT22;7321;50.802;4.336;2022-12-18T00:11:07;0.40;99.90
14471;DHT22;7321;50.802;4.336;2022-12-18T00:13:34;0.50;99.90
14471;DHT22;7321;50.802;4.336;2022-12-18T00:16:05;0.50;99.90
14471;DHT22;7321;50.802;4.336;2022-12-18T00:18:32;0.50;99.90
14471;DHT22;7321;50.802;4.336;2022-12-18T00:20:59;0.40;99.90
14471;DHT22;7321;50.802;4.336;2022-12-18T00:23:25;0.40;99.90
14471;DHT22;7321;50.802;4.336;2022-12-18T00:25:51;0.20;99.90
14471;DHT22;7321;50.802;4.336;2022-12-18T00:28:17;0.20;99.90
14471;DHT22;7321;50.802;4.336;2022-12-18T00:30:43;0.20;99.90
14471;DHT22;7321;50.802;4.336;2022-12-18T00:33:09;0.30;99.90
14471;DHT22;7321;50.802;4.336;2022-12-18T00:35:34;0.20;99.90
14471;DHT22;7321;50.802;4.336;2022-12-18T00:38:00;0.20;99.90
14471;DHT22;7321;50.802;4.336;2022-12-18T00:40:26;0.10;99.90
14471;DHT22;7321;50.802;4.336;2022-12-18T00:42:51;0.20;99.90
14471;DHT22;7321;50.802;4.336;2022-12-18T00:45:28;0.20;99.90
14471;DHT22;7321;50.802;4.336;2022-12-18T00:47:55;0.20;99.90
14471;DHT22;7321;50.802;4.336;2022-12-18T00:50:22;0.10;99.90
14471;DHT22;7321;50.802;4.336;2022-12-18T00:52:49;0.20;99.90
14471;DHT22;7321;50.802;4.336;2022-12-18T00:55:15;0.10;99.90
14471;DHT22;7321;50.802;4.336;2022-12-18T00:57:41;0.10;99.90
14471;DHT22;7321;50.802;4.336;2022-12-18T01:00:14;0.20;99.90
14471;DHT22;7321;50.802;4.336;2022-12-18T01:02:40;0.10;99.90
14471;DHT22;7321;50.802;4.336;2022-12-18T01:05:07;0.10;99.90
14471;DHT22;7321;50.802;4.336;2022-12-18T01:07:33;0.10;99.90
14471;DHT22;7321;50.802;4.336;2022-12-18T01:09:58;0.10;99.90
14471;DHT22;7321;50.802;4.336;2022-12-18T01:12:24;0.10;99.90
14471;DHT22;7321;50.802;4.336;2022-12-18T01:14:50;0.00;99.90
14471;DHT22;7321;50.802;4.336;2022-12-18T01:17:16;0.10;99.90
14471;DHT22;7321;50.802;4.336;2022-12-18T01:19:42;0.00;99.90
14471;DHT22;7321;50.802;4.336;2022-12-18T01:22:07;-0.10;99.90
14471;DHT22;7321;50.802;4.336;2022-12-18T01:24:33;0.00;99.90
14471;DHT22;7321;50.802;4.336;2022-12-18T01:26:59;-0.10;99.90
14471;DHT22;7321;50.802;4.336;2022-12-18T01:29:25;-0.20;99.90
14471;DHT22;7321;50.802;4.336;2022-12-18T01:31:50;-0.30;99.90
14471;DHT22;7321;50.802;4.336;2022-12-18T01:34:17;-0.40;99.90
14471;DHT22;7321;50.802;4.336;2022-12-18T01:36:42;-0.30;99.90
14471;DHT22;7321;50.802;4.336;2022-12-18T01:39:13;-0.30;99.90
14471;DHT22;7321;50.802;4.336;2022-12-18T01:41:39;-0.20;99.90
14471;DHT22;7321;50.802;4.336;2022-12-18T01:49:47;0.00;99.90
14471;DHT22;7321;50.802;4.336;2022-12-18T01:52:13;-0.10;99.90
14471;DHT22;7321;50.802;4.336;2022-12-18T01:54:40;-0.20;99.90
14471;DHT22;7321;50.802;4.336;2022-12-18T01:57:06;-0.10;99.90
14471;DHT22;7321;50.802;4.336;2022-12-18T01:59:33;0.00;99.90
14471;DHT22;7321;50.802;4.336;2022-12-18T02:01:59;0.20;99.90
14471;DHT22;7321;50.802;4.336;2022-12-18T02:04:27;0.30;99.90
14471;DHT22;7321;50.802;4.336;2022-12-18T02:07:02;0.20;99.90
14471;DHT22;7321;50.802;4.336;2022-12-18T02:12:23;0.20;99.90
14471;DHT22;7321;50.802;4.336;2022-12-18T02:15:39;0.30;99.90
14471;DHT22;7321;50.802;4.336;2022-12-18T02:17:58;0.10;99.90
14471;DHT22;7321;50.802;4.336;2022-12-18T02:20:36;0.10;99.90
14471;DHT22;7321;50.802;4.336;2022-12-18T02:23:38;0.10;99.90
14471;DHT22;7321;50.802;4.336;2022-12-18T02:26:30;0.20;99.90
14471;DHT22;7321;50.802;4.336;2022-12-18T02:29:12;0.20;99.90
14471;DHT22;7321;50.802;4.336;2022-12-18T02:31:50;0.20;99.90
14471;DHT22;7321;50.802;4.336;2022-12-18T02:34:17;0.20;99.90
14471;DHT22;7321;50.802;4.336;2022-12-18T02:36:45;0.40;99.90
14471;DHT22;7321;50.802;4.336;2022-12-18T02:39:12;0.30;99.90
14471;DHT22;7321;50.802;4.336;2022-12-18T02:41:39;0.30;99.90
14471;DHT22;7321;50.802;4.336;2022-12-18T02:44:11;0.20;99.90
14471;DHT22;7321;50.802;4.336;2022-12-18T02:57:44;-0.20;99.90
14471;DHT22;7321;50.802;4.336;2022-12-18T03:05:58;-0.40;99.90
14471;DHT22;7321;50.802;4.336;2022-12-18T03:08:28;-0.50;99.90
14471;DHT22;7321;50.802;4.336;2022-12-18T03:11:07;-0.80;99.90
14471;DHT22;7321;50.802;4.336;2022-12-18T03:13:46;-0.70;99.90
14471;DHT22;7321;50.802;4.336;2022-12-18T03:16:18;-0.60;99.90
14471;DHT22;7321;50.802;4.336;2022-12-18T03:18:57;-0.80;99.90
14471;DHT22;7321;50.802;4.336;2022-12-18T03:21:30;-0.90;99.90
14471;DHT22;7321;50.802;4.336;2022-12-18T03:23:58;-1.00;99.90
14471;DHT22;7321;50.802;4.336;2022-12-18T03:26:25;-1.00;99.90
14471;DHT22;7321;50.802;4.336;2022-12-18T03:29:25;-0.80;99.90
14471;DHT22;7321;50.802;4.336;2022-12-18T03:31:56;-0.90;99.90
14471;DHT22;7321;50.802;4.336;2022-12-18T03:34:34;-0.80;99.90
14471;DHT22;7321;50.802;4.336;2022-12-18T03:37:01;-1.00;99.90
14471;DHT22;7321;50.802;4.336;2022-12-18T03:39:27;-1.00;99.90
14471;DHT22;7321;50.802;4.336;2022-12-18T03:42:09;-1.10;99.90
14471;DHT22;7321;50.802;4.336;2022-12-18T03:44:39;-1.10;99.90
14471;DHT22;7321;50.802;4.336;2022-12-18T03:47:21;-1.20;99.90
14471;DHT22;7321;50.802;4.336;2022-12-18T03:50:02;-1.20;99.90
14471;DHT22;7321;50.802;4.336;2022-12-18T03:52:38;-1.20;99.90
14471;DHT22;7321;50.802;4.336;2022-12-18T03:55:07;-1.20;99.90
14471;DHT22;7321;50.802;4.336;2022-12-18T03:57:37;-1.20;99.90
14471;DHT22;7321;50.802;4.336;2022-12-18T04:00:11;-1.20;99.90
14471;DHT22;7321;50.802;4.336;2022-12-18T04:02:39;-1.20;99.90
14471;DHT22;7321;50.802;4.336;2022-12-18T04:05:10;-1.30;99.90
14471;DHT22;7321;50.802;4.336;2022-12-18T04:07:38;-1.20;99.90
14471;DHT22;7321;50.802;4.336;2022-12-18T04:10:07;-1.10;99.90
14471;DHT22;7321;50.802;4.336;2022-12-18T04:12:40;-1.30;99.90
14471;DHT22;7321;50.802;4.336;2022-12-18T04:15:13;-1.10;99.90
14471;DHT22;7321;50.802;4.336;2022-12-18T04:17:47;-1.10;99.90
14471;DHT22;7321;50.802;4.336;2022-12-18T04:20:17;-1.00;99.90
14471;DHT22;7321;50.802;4.336;2022-12-18T04:22:49;-1.00;99.90
14471;DHT22;7321;50.802;4.336;2022-12-18T04:25:18;-0.90;99.90
14471;DHT22;7321;50.802;4.336;2022-12-18T04:27:44;-0.90;99.90
14471;DHT22;7321;50.802;4.336;2022-12-18T04:30:13;-0.90;99.90
14471;DHT22;7321;50.802;4.336;2022-12-18T04:32:40;-0.90;99.90
14471;DHT22;7321;50.802;4.336;2022-12-18T04:35:06;-0.70;99.90
14471;DHT22;7321;50.802;4.336;2022-12-18T04:37:36;-0.70;99.90
14471;DHT22;7321;50.802;4.336;2022-12-18T04:40:02;-0.70;99.90
14471;DHT22;7321;50.802;4.336;2022-12-18T04:42:28;-0.80;99.90
14471;DHT22;7321;50.802;4.336;2022-12-18T04:44:54;-0.80;99.90
14471;DHT22;7321;50.802;4.336;2022-12-18T04:47:20;-0.80;99.90
14471;DHT22;7321;50.802;4.336;2022-12-18T04:49:46;-0.70;99.90
14471;DHT22;7321;50.802;4.336;2022-12-18T04:52:12;-0.80;99.90
14471;DHT22;7321;50.802;4.336;2022-12-18T04:54:37;-0.70;99.90
14471;DHT22;7321;50.802;4.336;2022-12-18T04:57:03;-0.70;99.90
14471;DHT22;7321;50.802;4.336;2022-12-18T04:59:29;-0.70;99.90
14471;DHT22;7321;50.802;4.336;2022-12-18T05:01:54;-0.70;99.90
14471;DHT22;7321;50.802;4.336;2022-12-18T05:04:20;-0.70;99.90
14471;DHT22;7321;50.802;4.336;2022-12-18T05:06:46;-0.80;99.90
14471;DHT22;7321;50.802;4.336;2022-12-18T05:09:12;-1.00;99.90
14471;DHT22;7321;50.802;4.336;2022-12-18T05:11:37;-1.00;99.90
14471;DHT22;7321;50.802;4.336;2022-12-18T05:14:03;-1.00;99.90
14471;DHT22;7321;50.802;4.336;2022-12-18T05:16:29;-1.10;99.90
14471;DHT22;7321;50.802;4.336;2022-12-18T05:18:55;-1.10;99.90
14471;DHT22;7321;50.802;4.336;2022-12-18T05:21:21;-1.10;99.90
14471;DHT22;7321;50.802;4.336;2022-12-18T05:23:47;-1.10;99.90
14471;DHT22;7321;50.802;4.336;2022-12-18T05:26:16;-1.30;99.90
14471;DHT22;7321;50.802;4.336;2022-12-18T05:28:43;-1.40;99.90
14471;DHT22;7321;50.802;4.336;2022-12-18T05:31:09;-1.40;99.90
14471;DHT22;7321;50.802;4.336;2022-12-18T05:33:35;-1.40;99.90
14471;DHT22;7321;50.802;4.336;2022-12-18T05:36:03;-1.30;99.90
14471;DHT22;7321;50.802;4.336;2022-12-18T05:38:31;-1.20;99.90
14471;DHT22;7321;50.802;4.336;2022-12-18T05:40:57;-1.30;99.90
14471;DHT22;7321;50.802;4.336;2022-12-18T05:43:24;-1.20;99.90
14471;DHT22;7321;50.802;4.336;2022-12-18T05:45:52;-1.20;99.90
14471;DHT22;7321;50.802;4.336;2022-12-18T05:48:18;-1.10;99.90
14471;DHT22;7321;50.802;4.336;2022-12-18T05:50:46;-1.00;99.90
14471;DHT22;7321;50.802;4.336;2022-12-18T05:53:17;-1.00;99.90
14471;DHT22;7321;50.802;4.336;2022-12-18T05:55:44;-1.10;99.90
14471;DHT22;7321;50.802;4.336;2022-12-18T05:58:11;-1.00;99.90
14471;DHT22;7321;50.802;4.336;2022-12-18T06:00:39;-0.90;99.90
14471;DHT22;7321;50.802;4.336;2022-12-18T06:03:09;-0.90;99.90
14471;DHT22;7321;50.802;4.336;2022-12-18T06:05:43;-0.90;99.90
14471;DHT22;7321;50.802;4.336;2022-12-18T06:08:11;-0.90;99.90
14471;DHT22;7321;50.802;4.336;2022-12-18T06:10:37;-0.90;99.90
14471;DHT22;7321;50.802;4.336;2022-12-18T06:13:03;-0.80;99.90
14471;DHT22;7321;50.802;4.336;2022-12-18T06:15:29;-0.80;99.90
14471;DHT22;7321;50.802;4.336;2022-12-18T06:17:55;-0.90;99.90
14471;DHT22;7321;50.802;4.336;2022-12-18T06:20:22;-0.90;99.90
14471;DHT22;7321;50.802;4.336;2022-12-18T06:22:48;-1.00;99.90
14471;DHT22;7321;50.802;4.336;2022-12-18T06:25:14;-0.80;99.90
14471;DHT22;7321;50.802;4.336;2022-12-18T06:27:39;-0.90;99.90
14471;DHT22;7321;50.802;4.336;2022-12-18T06:30:06;-0.80;99.90
14471;DHT22;7321;50.802;4.336;2022-12-18T06:32:32;-0.90;99.90
14471;DHT22;7321;50.802;4.336;2022-12-18T06:34:58;-0.90;99.90
14471;DHT22;7321;50.802;4.336;2022-12-18T06:37:24;-0.80;99.90
14471;DHT22;7321;50.802;4.336;2022-12-18T06:39:52;-0.90;99.90
14471;DHT22;7321;50.802;4.336;2022-12-18T06:42:18;-0.80;99.90
14471;DHT22;7321;50.802;4.336;2022-12-18T06:44:44;-0.80;99.90
14471;DHT22;7321;50.802;4.336;2022-12-18T06:47:10;-0.90;99.90
14471;DHT22;7321;50.802;4.336;2022-12-18T06:49:35;-0.90;99.90
14471;DHT22;7321;50.802;4.336;2022-12-18T06:52:01;-1.10;99.90
14471;DHT22;7321;50.802;4.336;2022-12-18T06:54:27;-1.20;99.90
14471;DHT22;7321;50.802;4.336;2022-12-18T06:56:53;-1.00;99.90
14471;DHT22;7321;50.802;4.336;2022-12-18T06:59:19;-1.00;99.90
14471;DHT22;7321;50.802;4.336;2022-12-18T07:01:45;-0.90;99.90
14471;DHT22;7321;50.802;4.336;2022-12-18T07:04:10;-0.90;99.90
14471;DHT22;7321;50.802;4.336;2022-12-18T07:06:36;-1.10;99.90
14471;DHT22;7321;50.802;4.336;2022-12-18T07:09:02;-1.00;99.90
14471;DHT22;7321;50.802;4.336;2022-12-18T07:11:28;-1.00;99.90
14471;DHT22;7321;50.802;4.336;2022-12-18T07:13:53;-0.90;99.90
14471;DHT22;7321;50.802;4.336;2022-12-18T07:16:20;-0.80;99.90
14471;DHT22;7321;50.802;4.336;2022-12-18T07:18:46;-0.90;99.90
14471;DHT22;7321;50.802;4.336;2022-12-18T07:21:15;-0.80;99.90
14471;DHT22;7321;50.802;4.336;2022-12-18T07:23:42;-0.80;99.90
14471;DHT22;7321;50.802;4.336;2022-12-18T07:26:11;-0.60;99.90
14471;DHT22;7321;50.802;4.336;2022-12-18T07:28:39;-0.40;99.90
14471;DHT22;7321;50.802;4.336;2022-12-18T07:31:07;-0.40;99.90
14471;DHT22;7321;50.802;4.336;2022-12-18T07:33:34;-0.50;99.90
14471;DHT22;7321;50.802;4.336;2022-12-18T07:36:04;-0.50;99.90
14471;DHT22;7321;50.802;4.336;2022-12-18T07:38:31;-0.80;99.90
14471;DHT22;7321;50.802;4.336;2022-12-18T07:41:01;-0.90;99.90
14471;DHT22;7321;50.802;4.336;2022-12-18T07:43:28;-0.70;99.90
14471;DHT22;7321;50.802;4.336;2022-12-18T07:45:54;-0.80;99.90
14471;DHT22;7321;50.802;4.336;2022-12-18T07:48:20;-0.70;99.90
14471;DHT22;7321;50.802;4.336;2022-12-18T07:50:45;-0.70;99.90
14471;DHT22;7321;50.802;4.336;2022-12-18T07:53:11;-0.80;99.90
14471;DHT22;7321;50.802;4.336;2022-12-18T07:55:37;-0.90;99.90
14471;DHT22;7321;50.802;4.336;2022-12-18T07:58:04;-0.80;99.90
14471;DHT22;7321;50.802;4.336;2022-12-18T08:00:30;-0.70;99.90
14471;DHT22;7321;50.802;4.336;2022-12-18T08:02:56;-0.70;99.90
14471;DHT22;7321;50.802;4.336;2022-12-18T08:05:22;-0.80;99.90
14471;DHT22;7321;50.802;4.336;2022-12-18T08:07:48;-0.80;99.90
14471;DHT22;7321;50.802;4.336;2022-12-18T08:10:17;-0.80;99.90
14471;DHT22;7321;50.802;4.336;2022-12-18T08:12:44;-0.70;99.90
14471;DHT22;7321;50.802;4.336;2022-12-18T08:15:10;-0.60;99.90
14471;DHT22;7321;50.802;4.336;2022-12-18T08:17:36;-0.60;99.90
14471;DHT22;7321;50.802;4.336;2022-12-18T08:20:02;-0.60;99.90
14471;DHT22;7321;50.802;4.336;2022-12-18T08:22:28;-0.50;99.90
14471;DHT22;7321;50.802;4.336;2022-12-18T08:24:53;-0.40;99.90
14471;DHT22;7321;50.802;4.336;2022-12-18T08:27:19;-0.50;99.90
14471;DHT22;7321;50.802;4.336;2022-12-18T08:29:45;-0.40;99.90
14471;DHT22;7321;50.802;4.336;2022-12-18T08:32:16;-0.30;99.90
14471;DHT22;7321;50.802;4.336;2022-12-18T08:34:42;-0.20;99.90
14471;DHT22;7321;50.802;4.336;2022-12-18T08:37:08;0.00;99.90
14471;DHT22;7321;50.802;4.336;2022-12-18T08:39:34;0.00;99.90
14471;DHT22;7321;50.802;4.336;2022-12-18T08:42:00;0.00;99.90
14471;DHT22;7321;50.802;4.336;2022-12-18T08:44:46;0.10;99.90
14471;DHT22;7321;50.802;4.336;2022-12-18T08:47:11;0.20;99.90
14471;DHT22;7321;50.802;4.336;2022-12-18T08:49:37;0.20;99.90
14471;DHT22;7321;50.802;4.336;2022-12-18T08:52:03;0.10;99.90
14471;DHT22;7321;50.802;4.336;2022-12-18T08:54:29;0.30;99.90
14471;DHT22;7321;50.802;4.336;2022-12-18T08:56:55;0.50;99.90
14471;DHT22;7321;50.802;4.336;2022-12-18T08:59:21;0.70;99.90
14471;DHT22;7321;50.802;4.336;2022-12-18T09:01:56;0.80;99.90
14471;DHT22;7321;50.802;4.336;2022-12-18T09:04:34;0.90;99.90
14471;DHT22;7321;50.802;4.336;2022-12-18T09:07:00;1.10;99.90
14471;DHT22;7321;50.802;4.336;2022-12-18T09:09:26;1.20;99.90
14471;DHT22;7321;50.802;4.336;2022-12-18T09:11:52;1.20;99.90
14471;DHT22;7321;50.802;4.336;2022-12-18T09:14:18;1.50;99.90
14471;DHT22;7321;50.802;4.336;2022-12-18T09:16:44;1.40;99.90
14471;DHT22;7321;50.802;4.336;2022-12-18T09:19:10;1.30;99.90
14471;DHT22;7321;50.802;4.336;2022-12-18T09:21:36;1.20;99.90
14471;DHT22;7321;50.802;4.336;2022-12-18T09:24:02;1.20;99.90
14471;DHT22;7321;50.802;4.336;2022-12-18T09:26:31;1.30;99.90
14471;DHT22;7321;50.802;4.336;2022-12-18T09:28:57;1.30;99.90
14471;DHT22;7321;50.802;4.336;2022-12-18T09:31:33;1.20;99.90
14471;DHT22;7321;50.802;4.336;2022-12-18T09:34:06;1.10;99.90
14471;DHT22;7321;50.802;4.336;2022-12-18T09:36:31;1.00;99.90
14471;DHT22;7321;50.802;4.336;2022-12-18T09:38:57;1.10;99.90
14471;DHT22;7321;50.802;4.336;2022-12-18T09:44:16;1.10;99.90
14471;DHT22;7321;50.802;4.336;2022-12-18T09:46:49;1.20;99.90
14471;DHT22;7321;50.802;4.336;2022-12-18T09:49:19;1.10;99.90
14471;DHT22;7321;50.802;4.336;2022-12-18T09:51:54;1.30;99.90
14471;DHT22;7321;50.802;4.336;2022-12-18T09:54:38;1.30;99.90
14471;DHT22;7321;50.802;4.336;2022-12-18T09:57:05;1.00;99.90
14471;DHT22;7321;50.802;4.336;2022-12-18T09:59:37;1.20;99.90
14471;DHT22;7321;50.802;4.336;2022-12-18T10:02:15;1.30;99.90
14471;DHT22;7321;50.802;4.336;2022-12-18T10:04:42;1.30;99.90
14471;DHT22;7321;50.802;4.336;2022-12-18T10:07:21;1.20;99.90
14471;DHT22;7321;50.802;4.336;2022-12-18T10:10:03;1.00;99.90
14471;DHT22;7321;50.802;4.336;2022-12-18T10:15:58;1.40;99.90
14471;DHT22;7321;50.802;4.336;2022-12-18T10:18:38;1.60;99.90
14471;DHT22;7321;50.802;4.336;2022-12-18T10:21:23;1.60;99.90
14471;DHT22;7321;50.802;4.336;2022-12-18T10:27:18;1.80;99.90
14471;DHT22;7321;50.802;4.336;2022-12-18T10:29:44;1.60;99.90
14471;DHT22;7321;50.802;4.336;2022-12-18T10:32:17;1.60;99.90
14471;DHT22;7321;50.802;4.336;2022-12-18T10:34:51;1.30;99.90
14471;DHT22;7321;50.802;4.336;2022-12-18T10:37:21;1.40;99.90
14471;DHT22;7321;50.802;4.336;2022-12-18T10:40:13;1.40;99.90
14471;DHT22;7321;50.802;4.336;2022-12-18T10:42:41;1.50;99.90
14471;DHT22;7321;50.802;4.336;2022-12-18T10:45:14;1.50;99.90
14471;DHT22;7321;50.802;4.336;2022-12-18T10:47:45;1.70;99.90
14471;DHT22;7321;50.802;4.336;2022-12-18T10:53:03;1.90;99.90
14471;DHT22;7321;50.802;4.336;2022-12-18T10:55:39;2.00;99.90
14471;DHT22;7321;50.802;4.336;2022-12-18T10:58:33;2.10;99.90
14471;DHT22;7321;50.802;4.336;2022-12-18T11:03:47;2.30;99.90
14471;DHT22;7321;50.802;4.336;2022-12-18T11:06:24;2.40;99.90
14471;DHT22;7321;50.802;4.336;2022-12-18T11:09:19;2.50;99.90
14471;DHT22;7321;50.802;4.336;2022-12-18T11:12:02;2.60;99.90
14471;DHT22;7321;50.802;4.336;2022-12-18T11:14:47;2.80;99.90
14471;DHT22;7321;50.802;4.336;2022-12-18T11:17:32;2.80;99.90
14471;DHT22;7321;50.802;4.336;2022-12-18T11:20:09;3.10;99.90
14471;DHT22;7321;50.802;4.336;2022-12-18T11:23:00;3.30;99.90
14471;DHT22;7321;50.802;4.336;2022-12-18T11:25:28;3.40;99.90
14471;DHT22;7321;50.802;4.336;2022-12-18T11:28:00;3.40;99.90
14471;DHT22;7321;50.802;4.336;2022-12-18T11:30:37;3.30;99.90
14471;DHT22;7321;50.802;4.336;2022-12-18T11:33:13;3.50;99.90
14471;DHT22;7321;50.802;4.336;2022-12-18T11:38:25;3.30;99.90
14471;DHT22;7321;50.802;4.336;2022-12-18T11:43:45;3.10;99.90
14471;DHT22;7321;50.802;4.336;2022-12-18T11:46:32;2.90;99.90
14471;DHT22;7321;50.802;4.336;2022-12-18T11:49:22;2.80;99.90
14471;DHT22;7321;50.802;4.336;2022-12-18T11:52:03;2.90;99.90
14471;DHT22;7321;50.802;4.336;2022-12-18T11:54:30;3.00;99.90
14471;DHT22;7321;50.802;4.336;2022-12-18T12:00:20;3.00;99.90
14471;DHT22;7321;50.802;4.336;2022-12-18T12:11:38;2.70;99.90
14471;DHT22;7321;50.802;4.336;2022-12-18T12:31:07;3.40;99.90
14471;DHT22;7321;50.802;4.336;2022-12-18T12:39:14;3.50;99.90
14471;DHT22;7321;50.802;4.336;2022-12-18T12:41:42;3.50;99.90
14471;DHT22;7321;50.802;4.336;2022-12-18T12:44:34;3.40;99.90
14471;DHT22;7321;50.802;4.336;2022-12-18T12:47:17;3.40;99.90
14471;DHT22;7321;50.802;4.336;2022-12-18T12:49:44;3.40;99.90
14471;DHT22;7321;50.802;4.336;2022-12-18T12:54:55;3.20;99.90
14471;DHT22;7321;50.802;4.336;2022-12-18T12:57:43;3.10;99.90
14471;DHT22;7321;50.802;4.336;2022-12-18T13:00:28;2.80;99.90
14471;DHT22;7321;50.802;4.336;2022-12-18T13:06:11;3.00;99.90
14471;DHT22;7321;50.802;4.336;2022-12-18T13:08:59;3.10;99.90
14471;DHT22;7321;50.802;4.336;2022-12-18T13:11:46;3.00;99.90
14471;DHT22;7321;50.802;4.336;2022-12-18T13:14:36;3.20;99.90
14471;DHT22;7321;50.802;4.336;2022-12-18T13:19:50;3.10;99.90
14471;DHT22;7321;50.802;4.336;2022-12-18T13:25:00;3.10;99.90
14471;DHT22;7321;50.802;4.336;2022-12-18T13:38:39;2.70;99.90
14471;DHT22;7321;50.802;4.336;2022-12-18T13:43:48;3.00;99.90
14471;DHT22;7321;50.802;4.336;2022-12-18T13:46:45;3.10;99.90
14471;DHT22;7321;50.802;4.336;2022-12-18T13:51:48;2.90;99.90
14471;DHT22;7321;50.802;4.336;2022-12-18T13:54:38;3.00;99.90
14471;DHT22;7321;50.802;4.336;2022-12-18T13:57:25;2.90;99.90
14471;DHT22;7321;50.802;4.336;2022-12-18T13:59:51;2.80;99.90
14471;DHT22;7321;50.802;4.336;2022-12-18T14:02:25;2.80;99.90
14471;DHT22;7321;50.802;4.336;2022-12-18T14:04:52;2.90;99.90
14471;DHT22;7321;50.802;4.336;2022-12-18T14:07:24;2.90;99.90
14471;DHT22;7321;50.802;4.336;2022-12-18T14:09:52;2.80;99.90
14471;DHT22;7321;50.802;4.336;2022-12-18T14:12:30;2.90;99.90
14471;DHT22;7321;50.802;4.336;2022-12-18T14:17:40;2.90;99.90
14471;DHT22;7321;50.802;4.336;2022-12-18T14:20:14;3.10;99.90
14471;DHT22;7321;50.802;4.336;2022-12-18T14:22:43;3.20;99.90
14471;DHT22;7321;50.802;4.336;2022-12-18T14:27:47;3.30;99.90
14471;DHT22;7321;50.802;4.336;2022-12-18T14:30:34;3.30;99.90
14471;DHT22;7321;50.802;4.336;2022-12-18T14:35:27;3.30;99.90
14471;DHT22;7321;50.802;4.336;2022-12-18T14:37:53;3.20;99.90
14471;DHT22;7321;50.802;4.336;2022-12-18T14:40:19;3.20;99.90
14471;DHT22;7321;50.802;4.336;2022-12-18T14:42:45;3.10;99.90
14471;DHT22;7321;50.802;4.336;2022-12-18T14:45:33;2.90;99.90
14471;DHT22;7321;50.802;4.336;2022-12-18T14:48:00;3.10;99.90
14471;DHT22;7321;50.802;4.336;2022-12-18T14:50:26;3.00;99.90
14471;DHT22;7321;50.802;4.336;2022-12-18T14:52:52;2.90;99.90
14471;DHT22;7321;50.802;4.336;2022-12-18T14:55:19;2.80;99.90
14471;DHT22;7321;50.802;4.336;2022-12-18T14:57:50;2.80;99.90
14471;DHT22;7321;50.802;4.336;2022-12-18T15:00:21;2.90;99.90
14471;DHT22;7321;50.802;4.336;2022-12-18T15:02:52;3.00;99.90
14471;DHT22;7321;50.802;4.336;2022-12-18T15:05:26;2.80;99.90
14471;DHT22;7321;50.802;4.336;2022-12-18T15:07:53;2.80;99.90
14471;DHT22;7321;50.802;4.336;2022-12-18T15:10:27;2.70;99.90
14471;DHT22;7321;50.802;4.336;2022-12-18T15:20:39;2.40;99.90
14471;DHT22;7321;50.802;4.336;2022-12-18T15:23:34;2.30;99.90
14471;DHT22;7321;50.802;4.336;2022-12-18T15:31:17;2.20;99.90
14471;DHT22;7321;50.802;4.336;2022-12-18T15:36:21;2.20;99.90
14471;DHT22;7321;50.802;4.336;2022-12-18T15:38:49;2.40;99.90
14471;DHT22;7321;50.802;4.336;2022-12-18T15:41:17;2.40;99.90
14471;DHT22;7321;50.802;4.336;2022-12-18T15:43:48;2.40;99.90
14471;DHT22;7321;50.802;4.336;2022-12-18T15:46:17;2.30;99.90
14471;DHT22;7321;50.802;4.336;2022-12-18T15:48:55;2.40;99.90
14471;DHT22;7321;50.802;4.336;2022-12-18T15:51:27;2.40;99.90
14471;DHT22;7321;50.802;4.336;2022-12-18T15:53:56;2.20;99.90
14471;DHT22;7321;50.802;4.336;2022-12-18T15:56:23;2.30;99.90
14471;DHT22;7321;50.802;4.336;2022-12-18T15:59:18;2.40;99.90
14471;DHT22;7321;50.802;4.336;2022-12-18T16:01:47;2.50;99.90
14471;DHT22;7321;50.802;4.336;2022-12-18T16:04:14;2.50;99.90
14471;DHT22;7321;50.802;4.336;2022-12-18T16:06:43;2.60;99.90
14471;DHT22;7321;50.802;4.336;2022-12-18T16:09:09;2.60;99.90
14471;DHT22;7321;50.802;4.336;2022-12-18T16:11:36;2.60;99.90
14471;DHT22;7321;50.802;4.336;2022-12-18T16:16:42;2.80;99.90
14471;DHT22;7321;50.802;4.336;2022-12-18T16:19:09;2.60;99.90
14471;DHT22;7321;50.802;4.336;2022-12-18T16:21:38;2.50;99.90
14471;DHT22;7321;50.802;4.336;2022-12-18T16:24:04;2.60;99.90
14471;DHT22;7321;50.802;4.336;2022-12-18T16:26:30;2.60;99.90
14471;DHT22;7321;50.802;4.336;2022-12-18T16:28:56;2.70;99.90
14471;DHT22;7321;50.802;4.336;2022-12-18T16:31:22;2.70;99.90
14471;DHT22;7321;50.802;4.336;2022-12-18T16:33:48;2.70;99.90
14471;DHT22;7321;50.802;4.336;2022-12-18T16:36:16;2.60;99.90
14471;DHT22;7321;50.802;4.336;2022-12-18T16:38:41;2.60;99.90
14471;DHT22;7321;50.802;4.336;2022-12-18T16:41:19;2.60;99.90
14471;DHT22;7321;50.802;4.336;2022-12-18T16:43:58;2.60;99.90
14471;DHT22;7321;50.802;4.336;2022-12-18T16:46:25;2.50;99.90
14471;DHT22;7321;50.802;4.336;2022-12-18T16:48:51;2.70;99.90
14471;DHT22;7321;50.802;4.336;2022-12-18T16:51:17;2.70;99.90
14471;DHT22;7321;50.802;4.336;2022-12-18T16:53:43;2.80;99.90
14471;DHT22;7321;50.802;4.336;2022-12-18T16:56:18;2.90;99.90
14471;DHT22;7321;50.802;4.336;2022-12-18T16:58:45;3.00;99.90
14471;DHT22;7321;50.802;4.336;2022-12-18T17:01:14;3.00;99.90
14471;DHT22;7321;50.802;4.336;2022-12-18T17:03:40;2.90;99.90
14471;DHT22;7321;50.802;4.336;2022-12-18T17:06:09;3.00;99.90
14471;DHT22;7321;50.802;4.336;2022-12-18T17:08:39;2.90;99.90
14471;DHT22;7321;50.802;4.336;2022-12-18T17:11:06;2.90;99.90
14471;DHT22;7321;50.802;4.336;2022-12-18T17:13:33;2.80;99.90
14471;DHT22;7321;50.802;4.336;2022-12-18T17:16:05;2.90;99.90
14471;DHT22;7321;50.802;4.336;2022-12-18T17:18:34;2.90;99.90
14471;DHT22;7321;50.802;4.336;2022-12-18T17:21:01;2.90;99.90
14471;DHT22;7321;50.802;4.336;2022-12-18T17:23:28;2.90;99.90
14471;DHT22;7321;50.802;4.336;2022-12-18T17:25:55;2.80;99.90
14471;DHT22;7321;50.802;4.336;2022-12-18T17:28:25;2.90;99.90
14471;DHT22;7321;50.802;4.336;2022-12-18T17:30:54;3.10;99.90
14471;DHT22;7321;50.802;4.336;2022-12-18T17:33:20;3.10;99.90
14471;DHT22;7321;50.802;4.336;2022-12-18T17:35:46;3.10;99.90
14471;DHT22;7321;50.802;4.336;2022-12-18T17:38:12;3.10;99.90
14471;DHT22;7321;50.802;4.336;2022-12-18T17:40:38;3.20;99.90
14471;DHT22;7321;50.802;4.336;2022-12-18T17:43:08;3.10;99.90
14471;DHT22;7321;50.802;4.336;2022-12-18T17:45:36;3.10;99.90
14471;DHT22;7321;50.802;4.336;2022-12-18T17:48:03;2.90;99.90
14471;DHT22;7321;50.802;4.336;2022-12-18T17:50:31;3.10;99.90
14471;DHT22;7321;50.802;4.336;2022-12-18T17:52:57;3.10;99.90
14471;DHT22;7321;50.802;4.336;2022-12-18T17:55:23;3.00;99.90
14471;DHT22;7321;50.802;4.336;2022-12-18T17:57:49;3.10;99.90
14471;DHT22;7321;50.802;4.336;2022-12-18T18:00:15;3.10;99.90
14471;DHT22;7321;50.802;4.336;2022-12-18T18:02:42;3.20;99.90
14471;DHT22;7321;50.802;4.336;2022-12-18T18:05:08;3.20;99.90
14471;DHT22;7321;50.802;4.336;2022-12-18T18:07:34;3.20;99.90
14471;DHT22;7321;50.802;4.336;2022-12-18T18:10:00;3.10;99.90
14471;DHT22;7321;50.802;4.336;2022-12-18T18:12:25;2.90;99.90
14471;DHT22;7321;50.802;4.336;2022-12-18T18:15:10;3.00;99.90
14471;DHT22;7321;50.802;4.336;2022-12-18T18:17:37;2.90;99.90
14471;DHT22;7321;50.802;4.336;2022-12-18T18:20:03;2.90;99.90
14471;DHT22;7321;50.802;4.336;2022-12-18T18:22:32;2.90;99.90
14471;DHT22;7321;50.802;4.336;2022-12-18T18:25:00;2.90;99.90
14471;DHT22;7321;50.802;4.336;2022-12-18T18:27:29;2.80;99.90
14471;DHT22;7321;50.802;4.336;2022-12-18T18:29:55;2.90;99.90